Wetterdaten Winter 2002/2003

Datum T max T min Regen
04.12.2002 4.4 °C 3.2 °C 7.6 mm
05.12.2002 6.8 °C 2.9 °C 0.7 mm
06.12.2002 5.4 °C 1.8 °C 0 mm
07.12.2002 3.7 °C 1.5 °C 0 mm
08.12.2002 4.1 °C -2.2 °C 0 mm
09.12.2002 -1.7 °C -5.5 °C 0 mm
10.12.2002 -0.7 °C -7 °C 0 mm
11.12.2002 -1.7 °C -7.9 °C 0 mm
12.12.2002 0.7 °C -7.5 °C 0 mm
13.12.2002 3 °C -3.5 °C 0 mm
14.12.2002 4.9 °C -2.8 °C 0 mm
15.12.2002 1 °C -0.5 °C 0 mm
17.12.2002 7.1 °C 3.3 °C 6.5 mm
18.12.2002 3.5 °C -2.3 °C 0 mm
19.12.2002 2.8 °C -4.5 °C 0 mm
20.12.2002 4.4 °C -4.3 °C 2.5 mm
21.12.2002 8 °C 4.3 °C 7.6 mm
22.12.2002 9.8 °C 6.2 °C 11.6 mm
25.12.2002 5.7 °C 5.6 °C 0.4 mm
26.12.2002 9.5 °C 4 °C 2.2 mm
27.12.2002 10.7 °C 5.9 °C 0.4 mm
28.12.2002 8 °C 3.6 °C 1.4 mm
29.12.2002 11.2 °C 5.7 °C 9 mm
30.12.2002 13.4 °C 9.3 °C 1.1 mm
31.12.2002 10.9 °C 1.5 °C 1.4 mm
01.01.2003 11.3 °C 1.3 °C 1.4 mm
02.01.2003 12.7 °C 9.4 °C 16.9 mm
03.01.2003 11.7 °C 6.6 °C 5.8 mm
04.01.2003 7.2 °C 5.6 °C 9 mm
07.01.2003 -3.1 °C -5.9 °C 8.6 mm
08.01.2003 -3.8 °C -11 °C 0 mm
09.01.2003 -5.2 °C -10 °C 0 mm
10.01.2003 -4.8 °C -9 °C 0 mm
11.01.2003 -1.6 °C -9.3 °C 0 mm
12.01.2003 -3.6 °C -12 °C 0 mm
13.01.2003 0.3 °C -9.9 °C 0 mm
14.01.2003 6 °C 0.3 °C 14.4 mm
15.01.2003 4.6 °C -0.2 °C 0 mm
16.01.2003 4.3 °C -1.2 °C 0.7 mm
17.01.2003 4.4 °C -3.9 °C 0 mm
18.01.2003 -0.5 °C -3.1 °C 1.1 mm
20.01.2003 9.5 °C 1.7 °C 0 mm
21.01.2003 7.2 °C 1.6 °C 0.4 mm
22.01.2003 10.2 °C 1.7 °C 0.4 mm
23.01.2003 8.8 °C 4.1 °C 4 mm
24.01.2003 5.3 °C 1.8 °C 1.8 mm
25.01.2003 5.1 °C -1.5 °C 0 mm
26.01.2003 1.5 °C -0.3 °C 1.1 mm
28.01.2003 10.1 °C 1.8 °C 10.1 mm
29.01.2003 4.7 °C 0.5 °C 5.4 mm
30.01.2003 2.8 °C -1.4 °C 1.1 mm
31.01.2003 -1.2 °C -3.9 °C 0 mm
04.02.2003 -0.6 °C -2.1 °C 12.2 mm
05.02.2003 2.1 °C -3.3 °C 1.4 mm
06.02.2003 2.5 °C -2.5 °C 0 mm
07.02.2003 5.1 °C -3.9 °C 1.1 mm
08.02.2003 2 °C 0.8 °C 0.7 mm
12.02.2003 0 °C -6.7 °C 3.2 mm
13.02.2003 0.5 °C -8 °C 0 mm
14.02.2003 1 °C -8.2 °C 0 mm
15.02.2003 1.4 °C -8.7 °C 0 mm
16.02.2003 2.4 °C -3.8 °C 0 mm
17.02.2003 1.4 °C -5.9 °C 0 mm
18.02.2003 3 °C -8.4 °C 0 mm
20.02.2003 5.8 °C -5.5 °C 0 mm
21.02.2003 5.3 °C -6.1 °C 0 mm
22.02.2003 6.4 °C -5.6 °C 0 mm
23.02.2003 8 °C -5.9 °C 0 mm
24.02.2003 9.7 °C -5.1 °C 0 mm
25.02.2003 11.6 °C -5.8 °C 0 mm
26.02.2003 12 °C -3.7 °C 0 mm
27.02.2003 10.9 °C -3.7 °C 0 mm
28.02.2003 14.3 °C -1.9 °C 0 mm
*) Messwert für diesen Zeitpunkt noch nicht verfügbar
 Hinweis zur Datenqualität
∅ Temperatur

1.6 °C

Abweichung vom Mittel

-0.4 °C

Niederschlag

153 mm

Abweichung vom Mittel

123 %

14.3 °C

Lufttemperatur
28.02.2003

1035 hPa

Luftdruck
24.01.2003

25.5 km/h

Windböen
30.12.2002

153 mm

Niederschlag
 

-12 °C

Lufttemperatur
12.01.2003

*) °C

Bodentemperatur 5cm
01.01.1970

986 hPa

Luftdruck
02.01.2003
*) Messwert für diesen Zeitpunkt noch nicht verfügbar
 Hinweis zur Datenqualität